Time;durP1;ratioP1;P1;durP2;ratioP2;P2;SDS_P1;SDS_P2;PMS_P1;PMS_P2;Temp;Humidity;BMP_temperature;BMP_pressure;BME280_temperature;BME280_humidity;BME280_pressure;Samples;Min_cycle;Max_cycle;Signal;HPM_P1;HPM_P2
2022/10/01 00:01:49;;;;;;;;;;;;;;;15.96;69.55;101179.05;1687270;85;26174;-60
2022/10/01 00:04:15;;;;;;;;;;;;;;;15.94;69.68;101180.58;1687338;84;25813;-60
2022/10/01 00:06:41;;;;;;;;;;;;;;;15.91;70.12;101182.24;1687365;84;27485;-59
2022/10/01 00:09:08;;;;;;;;;;;;;;;15.83;70.10;101189.47;1687008;85;25812;-60
2022/10/01 00:11:35;;;;;;;;;;;;;;;15.81;70.29;101189.13;1689175;84;25734;-59
2022/10/01 00:14:01;;;;;;;;;;;;;;;15.84;70.04;101190.69;1692677;84;26209;-60
2022/10/01 00:16:30;;;;;;;;;;;;;;;15.84;70.43;101192.05;1692436;84;25836;-60
2022/10/01 00:18:59;;;;;;;;;;;;;;;15.86;70.78;101186.48;1692445;84;27488;-60
2022/10/01 00:21:28;;;;;;;;;;;;;;;15.86;70.64;101197.33;1692039;83;25645;-60
2022/10/01 00:24:00;;;;;;;;;;;;;;;15.85;70.07;101195.63;1687568;84;25739;-59
2022/10/01 00:26:29;;;;;;;;;;;;;;;15.83;70.19;101195.73;1687174;85;26197;-60
2022/10/01 00:28:58;;;;;;;;;;;;;;;15.84;70.27;101196.64;1687528;84;25706;-59
2022/10/01 00:31:25;;;;;;;;;;;;;;;15.84;70.20;101200.70;1693083;84;27584;-59
2022/10/01 00:33:57;;;;;;;;;;;;;;;15.85;69.84;101202.41;1688264;85;25712;-59
2022/10/01 00:36:25;;;;;;;;;;;;;;;15.82;69.82;101196.77;1688134;85;25783;-59
2022/10/01 00:38:52;;;;;;;;;;;;;;;15.81;70.03;101193.71;1689532;84;26090;-60
2022/10/01 00:41:19;;;;;;;;;;;;;;;15.80;69.90;101195.55;1692446;84;25743;-59
2022/10/01 00:43:49;;;;;;;;;;;;;;;15.80;70.10;101193.36;1682181;84;27573;-60
2022/10/01 00:46:39;;;;;;;;;;;;;;;15.81;69.93;101203.20;1681604;84;25894;-60
2022/10/01 00:49:12;;;;;;;;;;;;;;;15.80;70.03;101196.08;1681944;85;25780;-61
2022/10/01 00:51:41;;;;;;;;;;;;;;;15.80;70.01;101192.84;1654353;86;26050;-60
2022/10/01 00:54:14;;;;;;;;;;;;;;;15.77;70.05;101191.83;1654542;86;26289;-59
2022/10/01 00:56:42;;;;;;;;;;;;;;;15.76;69.82;101191.97;1654353;86;27455;-60
2022/10/01 00:59:09;;;;;;;;;;;;;;;15.74;69.89;101199.41;1654334;86;25990;-59
2022/10/01 01:01:38;;;;;;;;;;;;;;;15.72;70.13;101196.03;1678432;84;25733;-60
2022/10/01 01:04:15;;;;;;;;;;;;;;;15.72;70.17;101193.31;1679851;85;26074;-59
2022/10/01 01:06:36;;;;;;;;;;;;;;;15.72;70.29;101187.38;1676340;85;25741;-60
2022/10/01 01:09:03;;;;;;;;;;;;;;;15.74;70.35;101191.27;1679589;85;27482;-60
2022/10/01 01:11:36;;;;;;;;;;;;;;;15.72;69.99;101187.89;1680711;85;25744;-59
2022/10/01 01:14:15;;;;;;;;;;;;;;;15.71;70.26;101196.52;1678902;85;25746;-59
2022/10/01 01:16:57;;;;;;;;;;;;;;;15.68;70.26;101193.27;1676413;85;26198;-60
2022/10/01 01:19:42;;;;;;;;;;;;;;;15.66;70.00;101196.16;1685860;85;25744;-59
2022/10/01 01:22:12;;;;;;;;;;;;;;;15.64;70.13;101190.88;1674216;85;27740;-60
2022/10/01 01:24:51;;;;;;;;;;;;;;;15.61;69.95;101191.20;1652056;86;25823;-60
2022/10/01 01:27:30;;;;;;;;;;;;;;;15.61;70.15;101193.92;1649436;87;25782;-59
2022/10/01 01:30:14;;;;;;;;;;;;;;;15.60;70.17;101201.70;1663901;84;25954;-60
2022/10/01 01:32:45;;;;;;;;;;;;;;;15.60;70.00;101196.77;1675360;85;25855;-60
2022/10/01 01:35:32;;;;;;;;;;;;;;;15.60;69.95;101203.55;1676536;85;27571;-60
2022/10/01 01:38:05;;;;;;;;;;;;;;;15.60;69.95;101210.33;1679199;83;25885;-60
2022/10/01 01:40:35;;;;;;;;;;;;;;;15.59;70.08;101210.84;1691268;83;25711;-60
2022/10/01 01:43:07;;;;;;;;;;;;;;;15.59;70.29;101207.30;1675502;85;26088;-60
2022/10/01 01:45:38;;;;;;;;;;;;;;;15.59;70.43;101205.42;1653359;85;26197;-60
2022/10/01 01:48:08;;;;;;;;;;;;;;;15.61;70.49;101199.83;1674908;85;27485;-60
2022/10/01 01:50:38;;;;;;;;;;;;;;;15.58;70.11;101195.58;1674328;85;25797;-60
2022/10/01 01:53:05;;;;;;;;;;;;;;;15.54;69.93;101196.92;1674491;85;25734;-61
2022/10/01 01:55:33;;;;;;;;;;;;;;;15.47;69.79;101206.19;1674549;85;26105;-60
2022/10/01 01:58:00;;;;;;;;;;;;;;;15.39;69.76;101214.27;1674627;85;25956;-60
2022/10/01 02:00:27;;;;;;;;;;;;;;;15.30;69.76;101210.62;1674596;85;27641;-60
2022/10/01 02:02:55;;;;;;;;;;;;;;;15.26;70.05;101209.73;1674939;85;26092;-60
2022/10/01 02:05:25;;;;;;;;;;;;;;;15.23;70.28;101217.67;1674571;85;25531;-60
2022/10/01 02:08:07;;;;;;;;;;;;;;;15.17;70.19;101207.47;1674844;85;26751;-59
2022/10/01 02:10:43;;;;;;;;;;;;;;;15.14;70.29;101217.26;1674496;85;25835;-59
2022/10/01 02:13:23;;;;;;;;;;;;;;;15.11;70.62;101218.42;1674783;85;27577;-59
2022/10/01 02:16:05;;;;;;;;;;;;;;;15.11;70.60;101229.27;1660231;85;25765;-60
2022/10/01 02:18:59;;;;;;;;;;;;;;;15.11;70.53;101233.33;1674268;85;26169;-60
2022/10/01 02:21:38;;;;;;;;;;;;;;;15.13;70.86;101229.09;1674769;85;26272;-59
2022/10/01 02:24:08;;;;;;;;;;;;;;;15.12;70.96;101226.03;1674939;85;25507;-59
2022/10/01 02:26:36;;;;;;;;;;;;;;;15.08;70.75;101223.30;1673424;85;27713;-59
2022/10/01 02:29:05;;;;;;;;;;;;;;;15.05;70.88;101231.73;1674764;85;25867;-60
2022/10/01 02:31:32;;;;;;;;;;;;;;;15.00;70.86;101231.71;1674527;85;25751;-59
2022/10/01 02:34:00;;;;;;;;;;;;;;;14.97;71.16;101235.23;1672528;85;26790;-59
2022/10/01 02:36:28;;;;;;;;;;;;;;;14.95;71.28;101239.42;1672482;85;25808;-59
2022/10/01 02:38:56;;;;;;;;;;;;;;;14.96;71.17;101246.55;1685962;84;28268;-60
2022/10/01 02:41:26;;;;;;;;;;;;;;;14.97;71.22;101242.00;1687406;84;25846;-60
2022/10/01 02:43:59;;;;;;;;;;;;;;;14.98;71.34;101240.97;1689655;85;25739;-59
2022/10/01 02:46:35;;;;;;;;;;;;;;;14.96;71.21;101246.55;1690085;85;26112;-60
2022/10/01 02:49:03;;;;;;;;;;;;;;;14.95;71.02;101244.84;1676004;85;25730;-60
2022/10/01 02:51:46;;;;;;;;;;;;;;;14.93;71.30;101241.95;1676802;85;27502;-60
2022/10/01 02:54:18;;;;;;;;;;;;;;;14.91;71.04;101240.76;1676542;85;27319;-60
2022/10/01 02:59:31;;;;;;;;;;;;;;;14.78;71.09;101248.38;1681288;85;26229;-59
2022/10/01 03:01:57;;;;;;;;;;;;;;;14.66;71.10;101244.52;1681000;85;25765;-59
2022/10/01 03:04:24;;;;;;;;;;;;;;;14.58;71.11;101248.46;1681006;85;27473;-60
2022/10/01 03:06:50;;;;;;;;;;;;;;;14.53;71.46;101242.14;1680923;85;26025;-60
2022/10/01 03:09:16;;;;;;;;;;;;;;;14.52;71.39;101245.02;1681211;85;25506;-60
2022/10/01 03:11:43;;;;;;;;;;;;;;;14.51;71.73;101250.07;1680848;85;26086;-60
2022/10/01 03:14:10;;;;;;;;;;;;;;;14.51;71.67;101244.17;1681004;85;27414;-59
2022/10/01 03:16:36;;;;;;;;;;;;;;;14.49;71.66;101239.89;1680469;85;27495;-61
2022/10/01 03:19:04;;;;;;;;;;;;;;;14.47;71.67;101241.41;1677111;85;25793;-60
2022/10/01 03:21:30;;;;;;;;;;;;;;;14.46;71.84;101246.46;1677079;85;25817;-60
2022/10/01 03:23:57;;;;;;;;;;;;;;;14.42;72.00;101242.84;1676941;85;26139;-60
2022/10/01 03:26:23;;;;;;;;;;;;;;;14.39;71.91;101244.84;1677228;85;25773;-61
2022/10/01 03:28:49;;;;;;;;;;;;;;;14.38;72.05;101243.66;1677126;85;27487;-60
2022/10/01 03:31:16;;;;;;;;;;;;;;;14.39;72.08;101241.30;1683937;85;25613;-60
2022/10/01 03:33:42;;;;;;;;;;;;;;;14.39;72.08;101243.49;1682422;85;25765;-60
2022/10/01 03:36:09;;;;;;;;;;;;;;;14.37;71.92;101246.00;1682460;85;26021;-61
2022/10/01 03:38:35;;;;;;;;;;;;;;;14.34;72.18;101247.68;1685070;85;26140;-60
2022/10/01 03:41:02;;;;;;;;;;;;;;;14.33;72.00;101241.91;1689977;85;29686;-60
2022/10/01 03:43:29;;;;;;;;;;;;;;;14.31;72.03;101235.27;1692521;83;25692;-60
2022/10/01 03:45:55;;;;;;;;;;;;;;;14.25;72.49;101231.30;1692719;84;25772;-60
2022/10/01 03:48:22;;;;;;;;;;;;;;;14.18;72.40;101228.02;1690148;85;26180;-60
2022/10/01 03:50:55;;;;;;;;;;;;;;;14.15;72.26;101224.23;1689830;85;25710;-60
2022/10/01 03:53:21;;;;;;;;;;;;;;;14.14;72.54;101220.70;1689606;84;27528;-61
2022/10/01 03:55:48;;;;;;;;;;;;;;;14.12;72.68;101226.75;1689581;84;25798;-60
2022/10/01 03:58:15;;;;;;;;;;;;;;;14.11;72.88;101225.04;1689986;85;25728;-60
2022/10/01 04:00:45;;;;;;;;;;;;;;;14.11;73.07;101229.09;1689595;85;27017;-60
2022/10/01 04:03:12;;;;;;;;;;;;;;;14.12;73.06;101238.92;1690013;85;25516;-60
2022/10/01 04:05:41;;;;;;;;;;;;;;;14.14;73.19;101238.77;1689669;85;28326;-60
2022/10/01 04:08:08;;;;;;;;;;;;;;;14.16;72.87;101240.83;1689095;85;26424;-60
2022/10/01 04:10:35;;;;;;;;;;;;;;;14.16;72.87;101242.18;1688662;85;25662;-61
2022/10/01 04:13:01;;;;;;;;;;;;;;;14.15;72.96;101241.34;1689191;84;26703;-59
2022/10/01 04:15:28;;;;;;;;;;;;;;;14.15;72.87;101248.11;1688486;84;25779;-60
2022/10/01 04:17:55;;;;;;;;;;;;;;;14.14;72.76;101259.92;1688753;85;27569;-59
2022/10/01 04:20:22;;;;;;;;;;;;;;;14.16;72.72;101266.53;1688625;85;25732;-60
2022/10/01 04:22:48;;;;;;;;;;;;;;;14.16;72.60;101263.83;1689021;85;25824;-59
2022/10/01 04:25:15;;;;;;;;;;;;;;;14.19;72.56;101270.31;1688776;84;26117;-61
2022/10/01 04:27:45;;;;;;;;;;;;;;;14.21;72.67;101269.63;1688698;85;26195;-59
2022/10/01 04:30:12;;;;;;;;;;;;;;;14.22;72.46;101269.98;1687598;84;27606;-59
2022/10/01 04:32:38;;;;;;;;;;;;;;;14.22;72.81;101265.45;1690070;85;25796;-59
2022/10/01 04:35:10;;;;;;;;;;;;;;;14.25;72.96;101262.94;1690082;85;25796;-60
2022/10/01 04:37:34;;;;;;;;;;;;;;;14.28;72.82;101259.08;1689838;84;26188;-60
2022/10/01 04:40:01;;;;;;;;;;;;;;;14.31;72.79;101254.73;1689557;83;25729;-60
2022/10/01 04:42:28;;;;;;;;;;;;;;;14.33;72.72;101256.28;1688546;85;28109;-60
2022/10/01 04:44:55;;;;;;;;;;;;;;;14.33;72.66;101256.80;1666086;84;26216;-60
2022/10/01 04:47:22;;;;;;;;;;;;;;;14.36;72.89;101257.83;1664004;86;25820;-60
2022/10/01 04:49:49;;;;;;;;;;;;;;;14.40;72.90;101266.02;1663867;86;26360;-61
2022/10/01 04:52:17;;;;;;;;;;;;;;;14.45;72.94;101261.52;1663832;85;25788;-61
2022/10/01 04:54:43;;;;;;;;;;;;;;;14.48;73.01;101258.00;1663767;86;27507;-60
2022/10/01 04:57:11;;;;;;;;;;;;;;;14.56;73.19;101262.67;1667137;85;27272;-60
2022/10/01 04:59:38;;;;;;;;;;;;;;;14.64;73.17;101273.60;1677002;85;25532;-60
2022/10/01 05:02:05;;;;;;;;;;;;;;;14.73;73.20;101277.27;1676677;85;26104;-60
2022/10/01 05:04:31;;;;;;;;;;;;;;;14.81;73.04;101278.72;1676555;85;25837;-60
2022/10/01 05:06:57;;;;;;;;;;;;;;;14.88;73.10;101274.08;1676714;85;27531;-60
2022/10/01 05:09:24;;;;;;;;;;;;;;;14.96;73.07;101266.03;1676793;85;25803;-60
2022/10/01 05:11:50;;;;;;;;;;;;;;;15.05;72.85;101284.56;1676771;85;25780;-61
2022/10/01 05:14:19;;;;;;;;;;;;;;;15.08;72.80;101282.91;1676935;85;26268;-61
2022/10/01 05:16:46;;;;;;;;;;;;;;;15.13;73.11;101284.65;1676789;85;26296;-60
2022/10/01 05:19:13;;;;;;;;;;;;;;;15.20;73.02;101283.02;1676485;85;28990;-61
2022/10/01 05:21:39;;;;;;;;;;;;;;;15.29;73.22;101284.80;1666683;85;25783;-60
2022/10/01 05:24:06;;;;;;;;;;;;;;;15.38;72.83;101280.81;1663931;86;25706;-60
2022/10/01 05:26:36;;;;;;;;;;;;;;;15.46;72.66;101279.56;1663692;86;26096;-60
2022/10/01 05:29:01;;;;;;;;;;;;;;;15.57;72.62;101282.53;1663748;86;25737;-61
2022/10/01 05:31:28;;;;;;;;;;;;;;;15.67;72.45;101273.80;1663509;84;28201;-61
2022/10/01 05:33:55;;;;;;;;;;;;;;;15.76;72.29;101275.56;1675484;85;25784;-60
2022/10/01 05:36:21;;;;;;;;;;;;;;;15.86;71.89;101280.91;1676894;85;25836;-60
2022/10/01 05:38:48;;;;;;;;;;;;;;;15.95;71.63;101276.41;1682094;85;26452;-61
2022/10/01 05:41:15;;;;;;;;;;;;;;;16.07;71.42;101283.25;1690263;84;25704;-60
2022/10/01 05:43:42;;;;;;;;;;;;;;;16.19;71.23;101285.70;1689353;84;27543;-60
2022/10/01 05:46:09;;;;;;;;;;;;;;;16.30;70.96;101286.80;1687120;84;25771;-61
2022/10/01 05:48:36;;;;;;;;;;;;;;;16.43;70.63;101287.70;1677475;84;25766;-61
2022/10/01 05:51:05;;;;;;;;;;;;;;;16.54;70.70;101283.84;1676506;85;27235;-61
2022/10/01 05:53:35;;;;;;;;;;;;;;;16.68;70.89;101281.02;1676436;85;25725;-60
2022/10/01 05:56:02;;;;;;;;;;;;;;;16.80;70.73;101273.41;1676457;85;26020;-60
2022/10/01 05:58:28;;;;;;;;;;;;;;;16.91;70.49;101269.03;1676503;85;25850;-61
2022/10/01 06:00:55;;;;;;;;;;;;;;;17.04;70.25;101262.62;1676695;85;25606;-61
2022/10/01 06:03:22;;;;;;;;;;;;;;;17.18;70.05;101265.72;1676664;85;26247;-60
2022/10/01 06:05:49;;;;;;;;;;;;;;;17.31;69.87;101262.52;1676752;85;25831;-61
2022/10/01 06:08:15;;;;;;;;;;;;;;;17.44;69.83;101264.72;1678330;85;27502;-61
2022/10/01 06:10:42;;;;;;;;;;;;;;;17.57;69.54;101268.30;1680475;85;25825;-62
2022/10/01 06:13:10;;;;;;;;;;;;;;;17.69;69.54;101271.02;1680475;85;25471;-61
2022/10/01 06:15:38;;;;;;;;;;;;;;;17.78;68.95;101270.48;1680608;85;26009;-61
2022/10/01 06:18:07;;;;;;;;;;;;;;;17.84;68.76;101272.52;1680499;85;25744;-61
2022/10/01 06:20:33;;;;;;;;;;;;;;;17.99;68.94;101280.38;1678965;85;27510;-61
2022/10/01 06:23:00;;;;;;;;;;;;;;;18.14;68.79;101283.73;1676510;85;25922;-60
2022/10/01 06:25:28;;;;;;;;;;;;;;;18.26;68.40;101273.31;1679151;84;25661;-60
2022/10/01 06:27:57;;;;;;;;;;;;;;;18.34;67.49;101281.45;1680198;85;26158;-60
2022/10/01 06:30:28;;;;;;;;;;;;;;;18.41;67.22;101278.89;1680175;84;25818;-60
2022/10/01 06:33:10;;;;;;;;;;;;;;;18.48;66.84;101280.41;1672018;85;27412;-61
2022/10/01 06:35:50;;;;;;;;;;;;;;;18.52;66.75;101277.15;1674642;84;25773;-61
2022/10/01 06:38:19;;;;;;;;;;;;;;;18.54;65.94;101283.28;1680947;84;25649;-61
2022/10/01 06:40:53;;;;;;;;;;;;;;;18.59;65.86;101283.59;1692104;84;26827;-61
2022/10/01 06:43:20;;;;;;;;;;;;;;;18.70;65.89;101284.22;1691681;84;25435;-61
2022/10/01 06:45:47;;;;;;;;;;;;;;;18.81;65.61;101285.70;1671845;84;27481;-61
2022/10/01 06:48:16;;;;;;;;;;;;;;;18.88;65.16;101285.31;1691731;84;25872;-61
2022/10/01 06:50:45;;;;;;;;;;;;;;;18.95;65.12;101281.40;1691920;83;25788;-60
2022/10/01 06:53:13;;;;;;;;;;;;;;;19.02;65.12;101285.97;1691806;83;26145;-60
2022/10/01 06:55:39;;;;;;;;;;;;;;;19.09;64.63;101292.92;1691837;83;25771;-61
2022/10/01 06:58:07;;;;;;;;;;;;;;;19.15;64.51;101293.55;1679303;84;27519;-61
2022/10/01 07:00:37;;;;;;;;;;;;;;;19.23;64.31;101297.59;1677841;85;26256;-61
2022/10/01 07:03:09;;;;;;;;;;;;;;;19.36;64.06;101297.52;1676653;85;25820;-60
2022/10/01 07:05:34;;;;;;;;;;;;;;;19.48;63.83;101300.66;1680088;85;26252;-62
2022/10/01 07:08:00;;;;;;;;;;;;;;;19.52;63.55;101296.02;1680164;85;25446;-61
2022/10/01 07:10:27;;;;;;;;;;;;;;;19.60;63.61;101296.98;1680251;85;27479;-61
2022/10/01 07:12:53;;;;;;;;;;;;;;;19.64;62.88;101305.98;1680260;85;25729;-61
2022/10/01 07:15:21;;;;;;;;;;;;;;;19.70;62.08;101301.14;1680496;85;25440;-61
2022/10/01 07:17:50;;;;;;;;;;;;;;;19.73;61.85;101294.47;1680118;85;26098;-60
2022/10/01 07:20:19;;;;;;;;;;;;;;;19.79;62.03;101293.75;1680757;85;25785;-60
2022/10/01 07:22:47;;;;;;;;;;;;;;;19.88;62.30;101298.63;1680460;85;27579;-60
2022/10/01 07:25:14;;;;;;;;;;;;;;;19.95;61.87;101297.38;1677065;85;25829;-62
2022/10/01 07:27:40;;;;;;;;;;;;;;;20.01;61.38;101292.53;1677529;85;25838;-60
2022/10/01 07:30:08;;;;;;;;;;;;;;;20.03;61.29;101285.54;1677671;84;26165;-61
2022/10/01 07:32:34;;;;;;;;;;;;;;;20.03;61.23;101272.72;1659333;86;25874;-61
2022/10/01 07:35:01;;;;;;;;;;;;;;;20.12;61.47;101278.42;1662997;84;27490;-60
2022/10/01 07:37:28;;;;;;;;;;;;;;;20.21;61.35;101275.61;1672153;85;25531;-61
2022/10/01 07:39:54;;;;;;;;;;;;;;;20.29;61.37;101272.77;1680454;84;25851;-60
2022/10/01 07:42:21;;;;;;;;;;;;;;;20.43;61.14;101268.34;1679280;85;26861;-61
2022/10/01 07:44:47;;;;;;;;;;;;;;;20.58;61.08;101265.60;1676591;85;25718;-61
2022/10/01 07:47:14;;;;;;;;;;;;;;;20.75;61.03;101262.18;1676838;85;27397;-60
2022/10/01 07:49:40;;;;;;;;;;;;;;;20.90;60.62;101262.98;1676362;85;25805;-61
2022/10/01 07:52:07;;;;;;;;;;;;;;;21.03;60.26;101258.17;1676591;85;25808;-61
2022/10/01 07:54:33;;;;;;;;;;;;;;;21.18;59.59;101251.28;1676597;85;26139;-61
2022/10/01 07:57:00;;;;;;;;;;;;;;;21.34;59.82;101241.11;1676699;85;25681;-61
2022/10/01 07:59:26;;;;;;;;;;;;;;;21.46;59.65;101242.29;1676713;85;27490;-61
2022/10/01 08:01:53;;;;;;;;;;;;;;;21.64;59.59;101237.72;1676707;85;25544;-61
2022/10/01 08:07:07;;;;;;;;;;;;;;;22.05;59.02;101234.20;1676646;85;26159;-61
2022/10/01 08:09:33;;;;;;;;;;;;;;;22.28;57.91;101232.22;1675790;85;25720;-61
2022/10/01 08:12:01;;;;;;;;;;;;;;;22.49;57.48;101226.67;1676595;85;28179;-62
2022/10/01 08:14:29;;;;;;;;;;;;;;;22.73;55.84;101223.59;1676382;85;25776;-61
2022/10/01 08:16:57;;;;;;;;;;;;;;;22.93;55.72;101219.53;1676671;85;25795;-60
2022/10/01 08:19:24;;;;;;;;;;;;;;;23.18;55.57;101217.55;1676520;85;26145;-62
2022/10/01 08:21:51;;;;;;;;;;;;;;;23.40;54.59;101210.86;1678490;85;26561;-61
2022/10/01 08:24:18;;;;;;;;;;;;;;;23.64;52.94;101212.64;1680510;85;27549;-61
2022/10/01 08:26:51;;;;;;;;;;;;;;;23.81;53.10;101206.70;1680537;85;25473;-61
2022/10/01 08:29:19;;;;;;;;;;;;;;;23.97;53.29;101202.17;1680722;85;25879;-61
2022/10/01 08:31:45;;;;;;;;;;;;;;;24.11;53.20;101196.63;1663251;85;25931;-61
2022/10/01 08:34:12;;;;;;;;;;;;;;;24.20;52.23;101189.31;1659431;85;25741;-62
2022/10/01 08:36:38;;;;;;;;;;;;;;;24.34;50.86;101197.50;1678264;85;29719;-60
2022/10/01 08:39:05;;;;;;;;;;;;;;;24.47;47.98;101197.45;1681852;84;25718;-60
2022/10/01 08:41:48;;;;;;;;;;;;;;;24.62;46.31;101190.81;1687246;85;25852;-61
2022/10/01 08:44:20;;;;;;;;;;;;;;;24.68;46.57;101184.45;1687084;84;26119;-61
2022/10/01 08:46:48;;;;;;;;;;;;;;;24.81;44.36;101173.91;1683101;84;25750;-61
2022/10/01 08:49:25;;;;;;;;;;;;;;;24.97;44.85;101167.86;1683020;84;27640;-61
2022/10/01 08:51:55;;;;;;;;;;;;;;;25.21;44.27;101166.74;1682918;84;25717;-61
2022/10/01 08:54:29;;;;;;;;;;;;;;;25.54;43.62;101164.80;1682436;84;26693;-61
2022/10/01 08:57:01;;;;;;;;;;;;;;;25.90;44.75;101156.26;1682846;84;26086;-61
2022/10/01 08:59:46;;;;;;;;;;;;;;;26.30;41.23;101162.69;1677135;84;25712;-61
2022/10/01 09:02:22;;;;;;;;;;;;;;;26.59;39.49;101156.56;1677170;85;28318;-61
2022/10/01 09:05:04;;;;;;;;;;;;;;;26.92;40.58;101155.28;1676188;85;25953;-61
2022/10/01 09:08:03;;;;;;;;;;;;;;;27.34;41.62;101136.70;1677206;85;25765;-62
2022/10/01 09:10:48;;;;;;;;;;;;;;;27.87;38.63;101140.98;1677049;85;26100;-61
2022/10/01 09:13:50;;;;;;;;;;;;;;;28.53;36.94;101132.91;1649856;87;25870;-62
2022/10/01 09:16:29;;;;;;;;;;;;;;;29.30;38.01;101130.09;1649587;87;27511;-61
2022/10/01 09:19:05;;;;;;;;;;;;;;;30.19;35.73;101130.22;1643511;87;25796;-61
2022/10/01 09:21:55;;;;;;;;;;;;;;;30.67;35.13;101124.92;1649417;87;25901;-61
2022/10/01 09:24:37;;;;;;;;;;;;;;;31.16;35.08;101124.55;1655296;85;26086;-61
2022/10/01 09:27:06;;;;;;;;;;;;;;;31.58;34.04;101117.31;1679051;85;26103;-61
2022/10/01 09:29:37;;;;;;;;;;;;;;;32.19;32.47;101117.31;1684760;84;28240;-60
2022/10/01 09:32:05;;;;;;;;;;;;;;;32.67;32.03;101115.22;1687239;84;25828;-61
2022/10/01 09:34:37;;;;;;;;;;;;;;;33.06;29.66;101095.16;1689066;85;25464;-61
2022/10/01 09:37:13;;;;;;;;;;;;;;;33.35;27.93;101100.17;1659795;85;27285;-60
2022/10/01 09:39:42;;;;;;;;;;;;;;;33.34;29.35;101098.50;1682441;84;25997;-61
2022/10/01 09:42:08;;;;;;;;;;;;;;;33.56;30.09;101093.16;1683626;84;27401;-61
2022/10/01 09:44:36;;;;;;;;;;;;;;;33.80;28.64;101091.09;1682653;84;25735;-61
2022/10/01 09:47:15;;;;;;;;;;;;;;;33.82;29.58;101088.86;1686137;85;25781;-61
2022/10/01 09:49:42;;;;;;;;;;;;;;;34.09;29.43;101089.86;1680099;85;26112;-61
2022/10/01 09:52:13;;;;;;;;;;;;;;;34.31;29.09;101084.44;1680465;85;25792;-61
2022/10/01 09:54:50;;;;;;;;;;;;;;;34.51;28.98;101081.27;1678343;85;27603;-61
2022/10/01 09:57:20;;;;;;;;;;;;;;;34.53;28.08;101072.86;1676511;85;25824;-60
2022/10/01 09:59:51;;;;;;;;;;;;;;;34.68;28.58;101064.07;1676395;85;25730;-62
2022/10/01 10:02:42;;;;;;;;;;;;;;;34.61;26.18;101065.80;1676601;85;26077;-60
2022/10/01 10:05:15;;;;;;;;;;;;;;;34.58;25.83;101050.45;1676350;85;25776;-61
2022/10/01 10:08:03;;;;;;;;;;;;;;;34.58;26.83;101052.43;1676525;85;27500;-61
2022/10/01 10:10:34;;;;;;;;;;;;;;;34.64;25.90;101053.50;1676212;85;25516;-61
2022/10/01 10:13:10;;;;;;;;;;;;;;;34.62;26.08;101056.29;1676532;85;25845;-61
2022/10/01 10:15:51;;;;;;;;;;;;;;;34.68;26.81;101046.76;1676228;85;26002;-61
2022/10/01 10:18:29;;;;;;;;;;;;;;;34.73;26.53;101041.11;1678293;85;25473;-61
2022/10/01 10:20:58;;;;;;;;;;;;;;;34.69;24.90;101037.80;1680423;85;27535;-61
2022/10/01 10:23:30;;;;;;;;;;;;;;;34.57;24.68;101035.40;1680394;85;25831;-61
2022/10/01 10:25:59;;;;;;;;;;;;;;;34.37;25.49;101031.61;1680130;85;25820;-61
2022/10/01 10:28:29;;;;;;;;;;;;;;;34.45;25.83;101026.83;1680381;85;29632;-61
2022/10/01 10:30:56;;;;;;;;;;;;;;;34.60;25.57;101016.09;1677952;84;25912;-61
2022/10/01 10:33:25;;;;;;;;;;;;;;;34.75;24.01;101008.13;1683990;84;27505;-62
2022/10/01 10:36:04;;;;;;;;;;;;;;;34.74;25.10;101010.66;1698710;84;25463;-61
2022/10/01 10:38:33;;;;;;;;;;;;;;;34.70;25.03;101002.58;1694050;83;25797;-61
2022/10/01 10:41:02;;;;;;;;;;;;;;;34.58;25.38;101009.13;1716183;83;26169;-61
2022/10/01 10:43:33;;;;;;;;;;;;;;;34.57;25.12;101005.48;1712865;83;25731;-62
2022/10/01 10:46:00;;;;;;;;;;;;;;;34.48;25.34;101000.27;1679546;85;28315;-61
2022/10/01 10:48:36;;;;;;;;;;;;;;;34.49;24.95;100990.77;1678592;85;26083;-61
2022/10/01 10:51:04;;;;;;;;;;;;;;;34.56;24.73;100987.64;1678536;85;25720;-61
2022/10/01 10:53:42;;;;;;;;;;;;;;;34.35;24.61;100991.14;1678574;85;26625;-61
2022/10/01 10:56:23;;;;;;;;;;;;;;;34.06;25.33;100982.15;1678533;85;25898;-60
2022/10/01 10:58:50;;;;;;;;;;;;;;;34.09;25.07;100982.97;1678797;85;27558;-60
2022/10/01 11:01:21;;;;;;;;;;;;;;;34.13;26.23;100974.27;1678420;85;25736;-61
2022/10/01 11:03:52;;;;;;;;;;;;;;;34.13;24.97;100975.13;1678223;85;25540;-61
2022/10/01 11:06:19;;;;;;;;;;;;;;;34.01;26.03;100965.73;1678427;85;27077;-60
2022/10/01 11:08:56;;;;;;;;;;;;;;;33.99;26.05;100972.16;1678894;85;25485;-60
2022/10/01 11:11:56;;;;;;;;;;;;;;;33.83;25.62;100965.80;1678189;85;27529;-61
2022/10/01 11:14:42;;;;;;;;;;;;;;;33.58;26.27;100961.20;1678709;85;25769;-61
2022/10/01 11:17:17;;;;;;;;;;;;;;;33.33;26.41;100954.64;1675634;85;25717;-62
2022/10/01 11:19:59;;;;;;;;;;;;;;;33.27;26.42;100950.19;1677952;84;26111;-61
2022/10/01 11:22:51;;;;;;;;;;;;;;;33.32;26.60;100947.39;1675767;85;25771;-61
2022/10/01 11:25:48;;;;;;;;;;;;;;;33.42;26.92;100941.50;1676970;85;27072;-60
2022/10/01 11:28:39;;;;;;;;;;;;;;;33.44;26.96;100934.50;1676731;85;26408;-60
2022/10/01 11:31:29;;;;;;;;;;;;;;;33.39;27.19;100935.94;1685443;83;25703;-61
2022/10/01 11:34:06;;;;;;;;;;;;;;;33.45;26.52;100929.20;1677379;85;26867;-60
2022/10/01 11:36:55;;;;;;;;;;;;;;;33.54;26.66;100925.27;1677747;85;25675;-60
2022/10/01 11:39:24;;;;;;;;;;;;;;;33.68;26.23;100919.88;1678889;85;27796;-61
2022/10/01 11:42:02;;;;;;;;;;;;;;;33.69;25.47;100909.82;1676656;85;25824;-60
2022/10/01 11:44:38;;;;;;;;;;;;;;;33.74;26.24;100910.34;1676068;85;25806;-60
2022/10/01 11:47:15;;;;;;;;;;;;;;;33.81;24.89;100916.43;1690023;84;26112;-61
2022/10/01 11:49:59;;;;;;;;;;;;;;;33.69;25.52;100905.64;1685941;84;25856;-62
2022/10/01 11:52:31;;;;;;;;;;;;;;;33.70;25.37;100902.30;1694547;84;27495;-61
2022/10/01 12:01:15;;;;;;;;;;;;;;;33.31;26.34;100893.30;1689778;84;26132;-61
2022/10/01 12:03:49;;;;;;;;;;;;;;;33.24;26.80;100895.84;1687355;85;25780;-62
2022/10/01 12:06:19;;;;;;;;;;;;;;;33.23;26.67;100904.48;1687384;85;27554;-60
2022/10/01 12:08:52;;;;;;;;;;;;;;;33.26;26.84;100910.06;1686888;85;25755;-61
2022/10/01 12:11:25;;;;;;;;;;;;;;;33.15;26.54;100907.31;1688010;85;25649;-61
2022/10/01 12:14:10;;;;;;;;;;;;;;;33.07;26.74;100899.55;1688158;84;26202;-61
2022/10/01 12:16:46;;;;;;;;;;;;;;;33.04;27.20;100902.33;1689718;84;25756;-61
2022/10/01 12:19:31;;;;;;;;;;;;;;;33.12;27.71;100897.30;1686617;84;27468;-61
2022/10/01 12:22:14;;;;;;;;;;;;;;;33.16;26.56;100880.27;1690629;84;25843;-62
2022/10/01 12:24:44;;;;;;;;;;;;;;;33.05;27.04;100881.70;1685805;83;25697;-61
2022/10/01 12:27:46;;;;;;;;;;;;;;;32.88;27.34;100877.89;1690582;84;25733;-61
2022/10/01 12:30:24;;;;;;;;;;;;;;;32.80;27.33;100880.41;1690601;84;25864;-61
2022/10/01 12:32:57;;;;;;;;;;;;;;;32.82;27.43;100871.22;1688084;85;28137;-61
2022/10/01 12:35:39;;;;;;;;;;;;;;;33.01;27.18;100861.66;1687918;84;25725;-61
2022/10/01 12:38:28;;;;;;;;;;;;;;;33.02;27.53;100860.55;1690340;84;26573;-61
2022/10/01 12:41:13;;;;;;;;;;;;;;;32.85;27.61;100861.73;1707212;82;26805;-61
2022/10/01 12:44:00;;;;;;;;;;;;;;;32.71;27.60;100861.47;1703469;84;25957;-61
2022/10/01 12:46:42;;;;;;;;;;;;;;;32.48;27.76;100854.58;1682924;84;27045;-62
2022/10/01 12:49:30;;;;;;;;;;;;;;;32.18;27.99;100849.87;1671001;85;25735;-61
2022/10/01 12:52:24;;;;;;;;;;;;;;;31.92;28.43;100849.32;1670416;85;25863;-62
2022/10/01 12:55:28;;;;;;;;;;;;;;;31.75;29.04;100846.83;1668086;85;26800;-61
2022/10/01 12:58:04;;;;;;;;;;;;;;;31.57;29.20;100839.00;1672043;85;25820;-61
2022/10/01 13:00:39;;;;;;;;;;;;;;;31.35;29.03;100845.62;1671810;85;27516;-61
2022/10/01 13:03:16;;;;;;;;;;;;;;;31.13;29.29;100842.52;1670194;85;26381;-60
2022/10/01 13:05:52;;;;;;;;;;;;;;;30.95;29.00;100837.42;1670490;85;25843;-60
2022/10/01 13:08:25;;;;;;;;;;;;;;;30.76;29.54;100832.34;1673265;85;26226;-61
2022/10/01 13:10:59;;;;;;;;;;;;;;;30.62;30.13;100827.84;1654793;85;25532;-62